Time;durP1;ratioP1;P1;durP2;ratioP2;P2;SDS_P1;SDS_P2;PMS_P1;PMS_P2;Temp;Humidity;BMP_temperature;BMP_pressure;BME280_temperature;BME280_humidity;BME280_pressure;Samples;Min_cycle;Max_cycle;Signal;HPM_P1;HPM_P2
2021/03/31 00:00:51;;;;;;;41.88;21.00;;;;;;;14.19;49.95;102599.34;5016345;28;20034;-82
2021/03/31 00:03:20;;;;;;;42.53;22.13;;;;;;;14.17;50.43;102594.03;5017291;28;20048;-81
2021/03/31 00:05:47;;;;;;;45.58;22.83;;;;;;;14.11;50.46;102596.75;5017155;28;20045;-82
2021/03/31 00:08:13;;;;;;;39.67;19.98;;;;;;;14.02;51.42;102586.16;5016931;28;20040;-82
2021/03/31 00:13:24;;;;;;;36.15;17.65;;;;;;;13.94;51.68;102582.63;5091405;27;20392;-81
2021/03/31 00:15:52;;;;;;;37.22;18.02;;;;;;;13.87;52.19;102585.34;5066212;28;20115;-81
2021/03/31 00:18:21;;;;;;;42.45;19.67;;;;;;;13.82;52.89;102584.47;5051158;28;20029;-81
2021/03/31 00:20:48;;;;;;;37.22;18.17;;;;;;;13.78;53.05;102580.03;5051667;28;20034;-80
2021/03/31 00:23:22;;;;;;;39.97;19.42;;;;;;;13.81;52.91;102580.03;5051570;28;20037;-80
2021/03/31 00:25:49;;;;;;;45.95;20.85;;;;;;;13.71;53.24;102583.66;5049988;28;20454;-82
2021/03/31 00:28:17;;;;;;;39.15;19.92;;;;;;;13.66;53.24;102575.69;5049621;28;20029;-85
2021/03/31 00:30:45;;;;;;;37.63;19.75;;;;;;;13.63;53.51;102569.47;5051647;28;20464;-81
2021/03/31 00:33:12;;;;;;;45.08;20.70;;;;;;;13.60;53.29;102570.38;5050161;28;20502;-82
2021/03/31 00:35:40;;;;;;;43.17;22.27;;;;;;;13.64;52.57;102566.81;5050850;28;20526;-88
2021/03/31 00:38:08;;;;;;;45.45;20.90;;;;;;;13.66;52.32;102554.38;5052453;28;20049;-82
2021/03/31 00:40:40;;;;;;;41.80;20.58;;;;;;;13.65;52.06;102559.72;5051524;28;20026;-81
2021/03/31 00:43:16;;;;;;;44.47;22.00;;;;;;;13.64;51.69;102556.16;5051253;28;20037;-81
2021/03/31 00:45:49;;;;;;;41.20;20.60;;;;;;;13.58;51.78;102562.41;5050563;28;20492;-79
2021/03/31 00:48:19;;;;;;;38.67;19.38;;;;;;;13.62;51.45;102546.41;5049701;28;20032;-80
2021/03/31 00:50:55;;;;;;;44.28;20.83;;;;;;;13.63;51.12;102550.84;5050779;28;20415;-80
2021/03/31 00:53:28;;;;;;;40.67;19.98;;;;;;;13.61;51.12;102549.94;5049246;28;20471;-80
2021/03/31 00:55:55;;;;;;;42.20;20.33;;;;;;;13.56;50.68;102545.53;5049921;28;20430;-85
2021/03/31 00:58:21;;;;;;;38.75;20.25;;;;;;;13.55;51.28;102537.56;5050131;28;20048;-81
2021/03/31 01:00:48;;;;;;;42.88;20.52;;;;;;;13.58;50.55;102530.44;5050001;28;20036;-80
2021/03/31 01:03:15;;;;;;;39.05;19.42;;;;;;;13.59;50.43;102526.91;5050086;28;20053;-81
2021/03/31 01:05:42;;;;;;;40.33;19.95;;;;;;;13.64;49.90;102529.50;5049682;28;20026;-80
2021/03/31 01:08:08;;;;;;;45.08;20.75;;;;;;;13.62;50.00;102522.44;5050217;28;20494;-81
2021/03/31 01:10:40;;;;;;;41.03;20.25;;;;;;;13.64;49.87;102516.19;5050248;28;20435;-81
2021/03/31 01:13:31;;;;;;;38.38;19.17;;;;;;;13.74;49.48;102515.28;5049461;28;20072;-80
2021/03/31 01:16:25;;;;;;;37.83;18.40;;;;;;;13.76;50.27;102504.59;5064218;22;20399;-86
2021/03/31 01:18:59;;;;;;;41.70;20.50;;;;;;;13.73;49.67;102507.25;5049576;28;20471;-88
2021/03/31 01:22:03;;;;;;;43.30;21.02;;;;;;;13.82;48.70;102503.66;5050540;28;20025;-87
2021/03/31 01:27:17;;;;;;;37.63;20.38;;;;;;;13.75;49.52;102509.03;5130566;27;20882;-87
2021/03/31 01:35:18;;;;;;;37.63;19.88;;;;;;;13.61;49.54;102502.91;5131441;27;20402;-88
2021/03/31 01:38:06;;;;;;;39.58;20.10;;;;;;;13.68;49.73;102488.66;5112038;28;20118;-88
2021/03/31 01:40:38;;;;;;;41.88;21.15;;;;;;;13.64;49.23;102494.03;5110829;28;20035;-88
2021/03/31 01:43:11;;;;;;;39.13;20.25;;;;;;;13.55;50.05;102487.84;5111154;28;20020;-88
2021/03/31 01:45:39;;;;;;;37.08;17.52;;;;;;;13.48;49.78;102486.09;5111123;28;20020;-87
2021/03/31 01:48:14;;;;;;;45.80;21.42;;;;;;;13.49;50.35;102487.88;5111297;28;20447;-88
2021/03/31 01:50:43;;;;;;;41.60;21.38;;;;;;;13.42;49.99;102491.47;5110978;28;20024;-87
2021/03/31 01:53:11;;;;;;;43.58;20.92;;;;;;;13.40;50.09;102493.28;5111553;28;20020;-88
2021/03/31 01:55:38;;;;;;;47.70;21.52;;;;;;;13.36;49.96;102487.03;5111088;28;20058;-87
2021/03/31 01:58:08;;;;;;;44.97;20.98;;;;;;;13.36;50.12;102486.16;5111172;28;20027;-87
2021/03/31 02:00:35;;;;;;;40.92;20.65;;;;;;;13.31;50.37;102493.28;5110664;28;20359;-87
2021/03/31 02:03:02;;;;;;;42.22;21.23;;;;;;;13.29;50.92;102489.75;5110789;28;20064;-88
2021/03/31 02:05:30;;;;;;;47.03;22.42;;;;;;;13.36;50.12;102486.16;5111093;28;20474;-86
2021/03/31 02:07:58;;;;;;;47.08;22.27;;;;;;;13.35;49.96;102479.06;5111063;28;20525;-87
2021/03/31 02:10:26;;;;;;;43.67;19.75;;;;;;;13.33;49.91;102478.19;5111779;28;20382;-87
2021/03/31 02:13:01;;;;;;;41.65;21.35;;;;;;;13.36;49.67;102478.19;5113185;28;20479;-86
2021/03/31 02:15:30;;;;;;;41.17;20.50;;;;;;;13.30;50.16;102470.22;5111813;28;20040;-86
2021/03/31 02:17:59;;;;;;;39.38;19.40;;;;;;;13.28;50.93;102467.56;5111249;28;20035;-87
2021/03/31 02:20:26;;;;;;;42.58;21.58;;;;;;;13.24;50.39;102466.69;5111703;28;20035;-87
2021/03/31 02:22:54;;;;;;;41.80;20.23;;;;;;;13.23;51.23;102472.03;5110746;28;20180;-87
2021/03/31 02:25:21;;;;;;;46.20;23.67;;;;;;;13.20;51.22;102464.06;5111113;28;20103;-87
2021/03/31 02:27:48;;;;;;;40.90;20.92;;;;;;;13.19;51.08;102456.97;5110983;28;20047;-87
2021/03/31 02:30:19;;;;;;;48.20;23.80;;;;;;;13.19;50.44;102463.16;5110844;28;20024;-87
2021/03/31 02:32:49;;;;;;;45.08;21.92;;;;;;;13.15;50.94;102461.41;5110413;28;20035;-87
2021/03/31 02:35:20;;;;;;;43.25;21.67;;;;;;;13.12;50.46;102464.06;5110491;28;20382;-88
2021/03/31 02:37:47;;;;;;;41.97;22.23;;;;;;;13.06;50.51;102458.78;5110312;28;20512;-87
2021/03/31 02:40:15;;;;;;;51.60;22.40;;;;;;;12.98;50.94;102455.28;5110900;28;20405;-87
2021/03/31 02:42:44;;;;;;;46.42;23.05;;;;;;;12.93;50.68;102453.53;5110759;28;20024;-87
2021/03/31 02:45:14;;;;;;;42.05;21.63;;;;;;;12.90;51.21;102450.88;5105356;28;20028;-87
2021/03/31 02:47:43;;;;;;;43.80;23.05;;;;;;;12.89;51.15;102445.56;5096832;28;20028;-88
2021/03/31 02:50:14;;;;;;;47.17;22.77;;;;;;;12.78;51.77;102445.59;5096726;28;20173;-87
2021/03/31 02:52:45;;;;;;;43.07;21.07;;;;;;;12.77;51.25;102452.72;5096733;28;20028;-88
2021/03/31 02:55:14;;;;;;;46.72;21.40;;;;;;;12.67;51.99;102439.44;5097099;28;20035;-87
2021/03/31 02:57:41;;;;;;;49.15;21.70;;;;;;;12.63;52.17;102438.56;5096062;28;20078;-88
2021/03/31 03:00:10;;;;;;;47.15;21.27;;;;;;;12.65;52.38;102438.53;5096945;28;20335;-87
2021/03/31 03:02:38;;;;;;;44.95;22.27;;;;;;;12.62;52.16;102435.03;5097123;28;20085;-87
2021/03/31 03:05:07;;;;;;;58.42;23.23;;;;;;;12.61;52.21;102433.25;5096582;28;20036;-88
2021/03/31 03:07:34;;;;;;;43.97;22.00;;;;;;;12.57;52.11;102436.81;5095964;28;20125;-88
2021/03/31 03:10:03;;;;;;;40.88;20.95;;;;;;;12.56;53.04;102431.47;5096734;28;20031;-87
2021/03/31 03:12:30;;;;;;;41.92;20.40;;;;;;;12.52;52.96;102430.59;5095507;28;20063;-88
2021/03/31 03:14:58;;;;;;;48.25;22.55;;;;;;;12.53;52.33;102423.53;5096601;28;20028;-87
2021/03/31 03:17:25;;;;;;;45.08;21.27;;;;;;;12.45;53.02;102427.09;5095813;28;20032;-87
2021/03/31 03:19:52;;;;;;;51.22;24.83;;;;;;;12.46;53.02;102420.88;5096106;28;20057;-87
2021/03/31 03:22:19;;;;;;;48.17;23.58;;;;;;;12.46;52.60;102418.22;5095998;28;20156;-87
2021/03/31 03:24:48;;;;;;;43.75;22.73;;;;;;;12.45;52.55;102420.91;5096172;28;20478;-87
2021/03/31 03:27:16;;;;;;;46.30;23.58;;;;;;;12.43;52.98;102417.34;5095688;28;20062;-87
2021/03/31 03:29:46;;;;;;;39.22;20.58;;;;;;;12.43;52.65;102420.00;5095748;28;20032;-88
2021/03/31 03:32:14;;;;;;;48.53;24.15;;;;;;;12.36;53.32;102416.50;5095752;28;20421;-87
2021/03/31 03:34:42;;;;;;;46.28;23.42;;;;;;;12.34;53.26;102412.06;5096125;28;20036;-87
2021/03/31 03:37:08;;;;;;;51.17;25.15;;;;;;;12.33;53.29;102408.50;5095414;28;20028;-87
2021/03/31 03:39:35;;;;;;;47.88;23.10;;;;;;;12.28;53.38;102418.25;5095771;28;20459;-87
2021/03/31 03:42:02;;;;;;;49.03;24.10;;;;;;;12.25;53.67;102418.25;5095701;28;20028;-88
2021/03/31 03:44:30;;;;;;;46.22;23.83;;;;;;;12.22;53.31;102412.97;5095784;28;20093;-87
2021/03/31 03:46:58;;;;;;;51.83;22.77;;;;;;;12.20;53.89;102418.28;5095320;28;20119;-88
2021/03/31 03:49:24;;;;;;;42.45;21.20;;;;;;;12.18;53.67;102409.41;5095067;28;20026;-88
2021/03/31 03:51:52;;;;;;;45.00;23.70;;;;;;;12.18;54.00;102413.88;5095427;28;20032;-87
2021/03/31 03:54:18;;;;;;;51.70;24.50;;;;;;;12.14;54.39;102411.19;5095530;28;20043;-87
2021/03/31 03:56:48;;;;;;;44.00;22.45;;;;;;;12.16;54.33;102402.34;5094606;28;20078;-87
2021/03/31 03:59:24;;;;;;;43.95;21.83;;;;;;;12.19;54.81;102412.97;5095375;28;20042;-86
2021/03/31 04:01:51;;;;;;;48.88;22.20;;;;;;;12.09;54.61;102407.66;5095412;28;20063;-86
2021/03/31 04:04:19;;;;;;;49.60;21.85;;;;;;;12.07;54.97;102404.09;5095157;28;20023;-87
2021/03/31 04:06:45;;;;;;;48.72;23.63;;;;;;;12.05;55.39;102399.69;5095053;28;20024;-87
2021/03/31 04:09:12;;;;;;;39.42;20.13;;;;;;;12.01;55.46;102401.47;5095224;28;20095;-86
2021/03/31 04:11:42;;;;;;;47.22;22.08;;;;;;;12.00;55.43;102393.50;5095220;28;20031;-86
2021/03/31 04:14:10;;;;;;;43.85;20.52;;;;;;;11.95;55.43;102398.78;5094921;28;20063;-87
2021/03/31 04:16:38;;;;;;;37.53;18.45;;;;;;;11.92;55.45;102389.03;5095022;28;20119;-86
2021/03/31 04:19:09;;;;;;;41.08;19.60;;;;;;;11.91;55.80;102392.59;5095051;28;20536;-87
2021/03/31 04:21:37;;;;;;;44.13;18.67;;;;;;;11.86;55.56;102389.03;5095026;28;20031;-87
2021/03/31 04:24:04;;;;;;;39.72;19.05;;;;;;;11.83;55.73;102397.03;5094803;28;20028;-86
2021/03/31 04:26:32;;;;;;;37.40;17.67;;;;;;;11.81;55.83;102391.72;5094681;28;20035;-87
2021/03/31 04:28:59;;;;;;;40.45;19.00;;;;;;;11.78;55.95;102388.19;5094634;28;20054;-87
2021/03/31 04:31:28;;;;;;;42.65;20.15;;;;;;;11.75;56.04;102386.41;5094839;28;20474;-87
2021/03/31 04:33:55;;;;;;;39.85;18.42;;;;;;;11.73;56.66;102388.16;5094279;28;20386;-87
2021/03/31 04:36:21;;;;;;;40.25;18.25;;;;;;;11.70;56.31;102397.91;5094748;28;20050;-87
2021/03/31 04:38:49;;;;;;;39.90;20.55;;;;;;;11.69;56.57;102382.84;5095072;28;20036;-87
2021/03/31 04:41:16;;;;;;;41.83;20.40;;;;;;;11.67;56.61;102385.50;5094830;28;20031;-87
2021/03/31 04:43:43;;;;;;;43.65;21.00;;;;;;;11.64;56.68;102389.06;5094792;28;20027;-88
2021/03/31 04:46:10;;;;;;;44.70;20.85;;;;;;;11.63;56.77;102389.06;5094566;28;20412;-88
2021/03/31 04:48:37;;;;;;;40.60;20.17;;;;;;;11.61;56.83;102389.06;5094696;28;20355;-88
2021/03/31 04:51:05;;;;;;;42.03;20.02;;;;;;;11.56;56.91;102390.81;5094998;28;20463;-88
2021/03/31 04:53:32;;;;;;;38.13;19.65;;;;;;;11.54;56.97;102387.28;5094761;28;20040;-88
2021/03/31 04:55:58;;;;;;;45.22;20.70;;;;;;;11.53;56.94;102387.28;5094131;28;20040;-87
2021/03/31 04:58:25;;;;;;;40.58;19.08;;;;;;;11.49;56.91;102389.94;5094122;28;20024;-88
2021/03/31 05:00:52;;;;;;;46.67;22.25;;;;;;;11.49;57.02;102389.06;5094444;28;20052;-87
2021/03/31 05:03:18;;;;;;;50.92;23.00;;;;;;;11.42;57.03;102385.50;5094569;28;20101;-88
2021/03/31 05:05:45;;;;;;;44.03;22.08;;;;;;;11.41;57.29;102385.50;5093849;28;20028;-87
2021/03/31 05:08:11;;;;;;;40.95;20.30;;;;;;;11.38;57.37;102385.50;5094130;28;20099;-88
2021/03/31 05:10:37;;;;;;;46.58;23.80;;;;;;;11.34;57.14;102384.63;5093972;28;20542;-87
2021/03/31 05:13:04;;;;;;;47.50;21.55;;;;;;;11.29;57.33;102381.94;5095025;28;20039;-88
2021/03/31 05:15:31;;;;;;;45.70;22.45;;;;;;;11.27;57.39;102378.41;5094127;28;20073;-88
2021/03/31 05:17:57;;;;;;;45.20;22.58;;;;;;;11.29;57.30;102376.63;5094801;28;20059;-88
2021/03/31 05:20:23;;;;;;;46.75;22.15;;;;;;;11.30;57.17;102378.41;5094169;28;20459;-87
2021/03/31 05:22:50;;;;;;;50.88;23.55;;;;;;;11.28;57.13;102366.03;5094062;28;20034;-87
2021/03/31 05:25:16;;;;;;;47.70;23.75;;;;;;;11.28;57.30;102364.25;5094204;28;20057;-87
2021/03/31 05:27:42;;;;;;;44.22;21.42;;;;;;;11.24;57.38;102367.78;5094001;28;20061;-88
2021/03/31 05:30:10;;;;;;;46.17;22.17;;;;;;;11.28;57.45;102374.00;5093871;28;20115;-88
2021/03/31 05:32:37;;;;;;;51.80;24.63;;;;;;;11.27;57.31;102367.78;5094241;28;20028;-86
2021/03/31 05:35:06;;;;;;;50.08;24.75;;;;;;;11.33;57.41;102372.22;5093496;28;20040;-86
2021/03/31 05:37:32;;;;;;;48.53;22.73;;;;;;;11.35;57.06;102366.91;5094230;28;20129;-88
2021/03/31 05:40:03;;;;;;;53.63;24.90;;;;;;;11.42;56.94;102372.22;5092960;28;20072;-87
2021/03/31 05:42:30;;;;;;;49.13;24.23;;;;;;;11.39;56.84;102368.69;5093756;28;20024;-88
2021/03/31 05:44:58;;;;;;;47.38;23.73;;;;;;;11.45;56.80;102371.34;5093300;28;20016;-86
2021/03/31 05:47:31;;;;;;;53.50;25.58;;;;;;;11.51;56.54;102363.38;5093607;28;20385;-88
2021/03/31 05:50:01;;;;;;;47.13;23.38;;;;;;;11.52;56.42;102366.94;5093443;28;20024;-87
2021/03/31 05:52:28;;;;;;;42.97;23.00;;;;;;;11.52;56.74;102362.50;5093815;28;20034;-87
2021/03/31 05:54:54;;;;;;;49.00;23.90;;;;;;;11.57;56.38;102365.16;5093572;28;20498;-88
2021/03/31 05:57:21;;;;;;;48.30;24.73;;;;;;;11.59;56.55;102366.94;5093601;28;20078;-88
2021/03/31 05:59:48;;;;;;;56.85;25.05;;;;;;;11.62;56.46;102366.91;5093645;28;20035;-88
2021/03/31 06:02:15;;;;;;;45.33;23.17;;;;;;;11.68;56.20;102363.41;5093181;28;20165;-88
2021/03/31 06:04:43;;;;;;;47.55;23.02;;;;;;;11.72;56.48;102364.28;5093349;28;20115;-89
2021/03/31 06:07:11;;;;;;;48.83;24.77;;;;;;;11.75;56.08;102370.47;5093177;28;20066;-89
2021/03/31 06:10:17;;;;;;;47.55;24.92;;;;;;;11.95;56.20;102367.81;5093926;28;20036;-87
2021/03/31 06:12:51;;;;;;;51.05;25.50;;;;;;;11.95;55.64;102366.91;5093536;28;20383;-90
2021/03/31 06:15:28;;;;;;;53.92;24.90;;;;;;;11.98;55.94;102365.16;5093159;28;20600;-90
2021/03/31 06:17:57;;;;;;;57.00;26.80;;;;;;;12.03;55.87;102364.28;5094569;28;20028;-88
2021/03/31 06:26:33;;;;;;;51.53;26.15;;;;;;;12.21;55.40;102361.59;5069936;28;20406;-87
2021/03/31 06:31:47;;;;;;;46.50;25.70;;;;;;;12.32;54.82;102350.03;5110394;27;20362;-89
2021/03/31 06:34:18;;;;;;;55.15;28.08;;;;;;;12.39;54.72;102346.50;5101287;28;20081;-88
2021/03/31 06:39:36;;;;;;;54.97;25.65;;;;;;;12.58;54.46;102347.28;5110898;27;20367;-93
2021/03/31 06:45:16;;;;;;;49.47;25.90;;;;;;;12.60;54.70;102341.06;5055750;28;20406;-87
2021/03/31 06:47:45;;;;;;;49.03;24.90;;;;;;;12.66;54.71;102344.59;5024017;28;20493;-86
2021/03/31 06:50:15;;;;;;;50.88;26.67;;;;;;;12.75;54.86;102347.22;5018656;28;20590;-87
2021/03/31 06:55:39;;;;;;;49.35;22.70;;;;;;;12.85;54.71;102346.28;5077061;27;20469;-87
2021/03/31 06:58:08;;;;;;;46.47;23.40;;;;;;;12.90;54.33;102336.47;5049260;28;20044;-87
2021/03/31 07:00:36;;;;;;;47.80;24.75;;;;;;;12.97;54.10;102339.97;5048502;28;20040;-86
2021/03/31 07:03:07;;;;;;;46.22;23.88;;;;;;;13.05;53.96;102340.84;5048721;28;20581;-87
2021/03/31 07:05:38;;;;;;;47.15;24.02;;;;;;;13.14;53.60;102347.88;5048814;28;20049;-85
2021/03/31 07:08:06;;;;;;;52.65;29.05;;;;;;;13.23;53.47;102341.59;5049814;28;20033;-85
2021/03/31 07:10:51;;;;;;;49.72;27.42;;;;;;;13.42;52.88;102342.38;5049446;28;20056;-85
2021/03/31 07:13:31;;;;;;;53.78;28.13;;;;;;;13.50;52.45;102345.00;5046751;28;20037;-86
2021/03/31 07:16:00;;;;;;;50.25;26.92;;;;;;;13.52;51.97;102343.19;5061927;22;20293;-79
2021/03/31 07:18:28;;;;;;;49.47;25.40;;;;;;;13.61;52.22;102340.47;5067079;28;20491;-80
2021/03/31 07:20:55;;;;;;;46.95;23.92;;;;;;;13.67;51.89;102339.50;5070084;28;20021;-80
2021/03/31 07:23:22;;;;;;;52.45;26.42;;;;;;;13.78;51.46;102336.75;5069687;28;20036;-80
2021/03/31 07:25:50;;;;;;;48.45;24.77;;;;;;;13.85;51.88;102344.66;5069570;28;20387;-81
2021/03/31 07:28:23;;;;;;;46.95;25.77;;;;;;;13.94;51.28;102341.03;5068957;28;20025;-80
2021/03/31 07:30:49;;;;;;;47.20;26.15;;;;;;;14.02;51.69;102343.63;5067545;28;20503;-80
2021/03/31 07:33:27;;;;;;;44.10;24.48;;;;;;;14.19;51.21;102352.34;5068544;28;20126;-81
2021/03/31 07:35:54;;;;;;;52.30;25.27;;;;;;;14.20;51.04;102347.88;5069276;28;20432;-83
2021/03/31 07:38:25;;;;;;;51.50;25.63;;;;;;;14.30;51.18;102341.53;5069042;28;20063;-81
2021/03/31 07:40:52;;;;;;;52.03;26.98;;;;;;;14.39;51.12;102345.88;5069345;28;20040;-84
2021/03/31 07:43:30;;;;;;;47.45;25.80;;;;;;;14.55;50.66;102339.47;5069092;28;20020;-82
2021/03/31 07:46:02;;;;;;;52.30;28.92;;;;;;;14.56;50.88;102335.00;5068239;28;20115;-83
2021/03/31 07:48:33;;;;;;;47.22;27.60;;;;;;;14.72;50.78;102333.06;5066138;28;20375;-85
2021/03/31 07:51:24;;;;;;;48.20;27.65;;;;;;;14.82;50.88;102332.00;5067572;28;20041;-85
2021/03/31 07:53:52;;;;;;;47.92;28.08;;;;;;;14.80;51.10;102338.28;5063461;28;20029;-82
2021/03/31 07:56:24;;;;;;;50.03;27.02;;;;;;;14.88;50.70;102331.94;5065907;28;20025;-83
2021/03/31 07:59:07;;;;;;;;;;;;;;;15.20;49.93;102343.91;5068572;28;20031;-82
2021/03/31 08:04:18;;;;;;;53.22;29.20;;;;;;;15.22;50.33;102346.56;5110726;27;20393;-80
2021/03/31 08:06:49;;;;;;;50.45;25.60;;;;;;;15.30;50.29;102349.09;5111281;28;20035;-79
2021/03/31 08:11:58;;;;;;;52.65;28.13;;;;;;;15.52;49.71;102350.50;5090710;28;20434;-80
2021/03/31 08:17:12;;;;;;;50.15;28.17;;;;;;;15.78;49.95;102340.31;5063014;28;20762;-79
2021/03/31 08:19:43;;;;;;;46.42;27.58;;;;;;;15.89;49.25;102337.44;5033572;28;20030;-83
2021/03/31 08:25:16;;;;;;;47.50;29.23;;;;;;;16.17;48.09;102328.03;5091037;27;20491;-78
2021/03/31 08:28:01;;;;;;;51.42;29.30;;;;;;;16.36;48.41;102332.09;5052324;28;20033;-80
2021/03/31 08:30:30;;;;;;;57.42;31.25;;;;;;;16.37;48.15;102334.75;5050666;28;20071;-81
2021/03/31 08:32:57;;;;;;;52.63;31.20;;;;;;;16.45;48.31;102327.44;5050593;28;20376;-79
2021/03/31 08:35:25;;;;;;;47.10;28.50;;;;;;;16.58;48.02;102321.84;5050671;28;20075;-80
2021/03/31 08:37:52;;;;;;;42.22;26.60;;;;;;;16.68;47.98;102327.88;5050634;28;20040;-81
2021/03/31 08:40:19;;;;;;;46.85;28.17;;;;;;;16.82;47.74;102325.75;5050666;28;20396;-81
2021/03/31 08:42:51;;;;;;;45.63;28.55;;;;;;;16.97;47.18;102324.56;5050323;28;20108;-81
2021/03/31 08:48:06;;;;;;;44.72;26.98;;;;;;;17.18;46.98;102316.94;5091242;27;20401;-94
2021/03/31 08:50:36;;;;;;;45.53;27.90;;;;;;;17.34;46.62;102318.31;5070933;28;20481;-81
2021/03/31 08:53:06;;;;;;;46.60;27.75;;;;;;;17.48;46.66;102315.28;5070430;28;20032;-81
2021/03/31 08:55:34;;;;;;;47.75;28.05;;;;;;;17.57;46.28;102311.50;5070553;28;20379;-86
2021/03/31 08:58:05;;;;;;;49.15;29.60;;;;;;;17.74;46.42;102311.06;5050553;28;20052;-87
2021/03/31 09:00:41;;;;;;;48.15;27.85;;;;;;;17.88;46.18;102311.56;5050140;28;20025;-88
2021/03/31 09:03:07;;;;;;;49.35;27.58;;;;;;;18.03;45.76;102301.34;5050324;28;20040;-90
2021/03/31 09:05:33;;;;;;;44.85;28.90;;;;;;;18.15;45.87;102302.81;5049754;28;20112;-89
2021/03/31 09:08:01;;;;;;;45.60;28.30;;;;;;;18.29;46.05;102303.28;5049809;28;20021;-90
2021/03/31 09:10:28;;;;;;;48.70;30.23;;;;;;;18.47;46.52;102306.34;5049700;28;20033;-89
2021/03/31 09:12:55;;;;;;;49.72;30.40;;;;;;;18.54;46.39;102306.16;5049824;28;20266;-89
2021/03/31 09:15:22;;;;;;;47.22;29.58;;;;;;;18.66;46.52;102295.97;5047159;28;20029;-89
2021/03/31 09:17:55;;;;;;;46.95;28.63;;;;;;;18.84;46.83;102297.16;5049574;28;20468;-91
2021/03/31 09:20:21;;;;;;;48.83;29.50;;;;;;;18.90;46.64;102291.59;5049564;28;20375;-88
2021/03/31 09:22:55;;;;;;;48.28;29.00;;;;;;;18.98;45.97;102291.38;5049441;28;20026;-90
2021/03/31 09:25:21;;;;;;;50.60;31.33;;;;;;;19.14;46.18;102291.78;5049026;28;20061;-86
2021/03/31 09:27:47;;;;;;;56.78;33.35;;;;;;;19.30;46.00;102290.34;5049513;28;20108;-87
2021/03/31 09:30:15;;;;;;;50.67;31.10;;;;;;;19.43;45.83;102287.22;5049828;28;20083;-87
2021/03/31 09:33:02;;;;;;;50.42;31.23;;;;;;;19.57;45.60;102293.00;5049643;28;20029;-88
2021/03/31 09:35:28;;;;;;;50.67;29.25;;;;;;;19.73;45.64;102291.53;5048399;28;20036;-87
2021/03/31 09:37:55;;;;;;;47.72;31.27;;;;;;;19.84;45.72;102293.00;5049369;28;20021;-81
2021/03/31 09:40:24;;;;;;;48.05;29.67;;;;;;;20.02;45.34;102294.13;5049964;28;20029;-90
2021/03/31 09:42:55;;;;;;;43.85;28.48;;;;;;;20.16;45.08;102293.63;5049761;28;20040;-89
2021/03/31 09:45:25;;;;;;;48.75;31.25;;;;;;;20.21;44.47;102291.63;5045963;28;20026;-88
2021/03/31 09:47:53;;;;;;;47.70;29.75;;;;;;;20.34;44.68;102287.53;5038051;28;20037;-87
2021/03/31 09:50:25;;;;;;;42.08;28.38;;;;;;;20.58;44.04;102284.84;5038592;28;20029;-87
2021/03/31 09:52:56;;;;;;;45.83;28.77;;;;;;;20.67;43.30;102279.09;5040663;28;20075;-87
2021/03/31 09:55:23;;;;;;;45.28;28.00;;;;;;;20.79;42.95;102279.59;5043521;28;20029;-90
2021/03/31 09:57:51;;;;;;;45.13;29.20;;;;;;;20.93;42.57;102281.72;5038730;28;20061;-89
2021/03/31 10:00:19;;;;;;;48.90;29.25;;;;;;;21.06;42.59;102279.38;5028983;28;20127;-85
2021/03/31 10:02:47;;;;;;;45.28;29.65;;;;;;;21.14;42.26;102277.25;5032482;28;21552;-84
2021/03/31 10:05:18;;;;;;;47.10;28.88;;;;;;;21.25;41.81;102268.72;5028521;28;20034;-85
2021/03/31 10:10:41;;;;;;;44.58;27.33;;;;;;;21.54;41.71;102264.75;5077180;28;20450;-82
2021/03/31 10:13:09;;;;;;;46.42;28.00;;;;;;;21.66;41.30;102268.78;5052300;28;20025;-84
2021/03/31 10:15:38;;;;;;;42.53;28.73;;;;;;;21.82;41.01;102274.38;5043833;28;20140;-83
2021/03/31 10:18:05;;;;;;;43.58;28.73;;;;;;;21.92;40.59;102274.81;5022340;28;20125;-83
2021/03/31 10:20:38;;;;;;;46.60;28.88;;;;;;;22.09;40.32;102264.16;5027355;28;20391;-84
2021/03/31 10:23:04;;;;;;;48.03;31.98;;;;;;;22.14;40.38;102266.59;5031974;28;20025;-84
2021/03/31 10:25:31;;;;;;;45.88;30.60;;;;;;;22.28;40.36;102260.56;5021454;28;20030;-83
2021/03/31 10:27:58;;;;;;;43.65;29.58;;;;;;;22.39;39.76;102268.19;5029568;28;20072;-85
2021/03/31 10:30:28;;;;;;;48.45;28.50;;;;;;;22.53;39.31;102260.31;5043090;28;20029;-85
2021/03/31 10:32:54;;;;;;;40.67;27.10;;;;;;;22.62;38.79;102254.47;5045134;28;20061;-82
2021/03/31 10:35:46;;;;;;;44.08;28.35;;;;;;;22.88;37.52;102257.72;5058638;28;20077;-91
2021/03/31 10:38:24;;;;;;;44.75;28.77;;;;;;;22.89;38.44;102259.47;5045817;28;20029;-83
2021/03/31 10:49:38;;;;;;;48.92;29.75;;;;;;;23.20;36.29;102257.97;5016117;28;20034;-82
2021/03/31 10:52:07;;;;;;;53.13;32.53;;;;;;;23.42;36.06;102251.44;5026604;28;20034;-82
2021/03/31 10:54:33;;;;;;;49.72;30.40;;;;;;;23.49;36.57;102250.16;5025960;28;20045;-82
2021/03/31 10:57:11;;;;;;;45.10;29.25;;;;;;;23.65;36.55;102246.63;5034454;28;20025;-83
2021/03/31 10:59:37;;;;;;;46.63;28.83;;;;;;;23.81;36.14;102234.03;5043493;28;20029;-86
2021/03/31 11:02:05;;;;;;;51.17;30.38;;;;;;;23.85;36.22;102235.63;5048908;28;20556;-84
2021/03/31 11:04:31;;;;;;;48.70;31.77;;;;;;;23.99;35.86;102231.31;5050430;28;20076;-84
2021/03/31 11:06:58;;;;;;;47.33;30.00;;;;;;;24.11;36.65;102232.47;5049383;28;20116;-84
2021/03/31 11:09:24;;;;;;;44.42;29.90;;;;;;;24.26;36.33;102218.06;5050022;28;20029;-84
2021/03/31 11:11:51;;;;;;;48.97;30.23;;;;;;;24.44;36.12;102226.13;5050895;28;20029;-85
2021/03/31 11:14:22;;;;;;;50.90;30.30;;;;;;;24.57;35.59;102226.28;5049859;28;20029;-84
2021/03/31 11:16:59;;;;;;;51.67;30.33;;;;;;;24.64;34.64;102222.28;5047724;28;20021;-85
2021/03/31 11:19:51;;;;;;;47.30;29.55;;;;;;;24.75;34.29;102219.84;5055141;28;20084;-90
2021/03/31 11:27:45;;;;;;;49.08;30.75;;;;;;;25.18;31.99;102205.56;5051052;28;20033;-84
2021/03/31 11:30:13;;;;;;;51.45;31.10;;;;;;;25.22;31.72;102198.97;5050667;28;20120;-82
2021/03/31 11:32:43;;;;;;;48.85;30.50;;;;;;;25.34;31.70;102200.06;5049378;28;20475;-91
2021/03/31 11:35:09;;;;;;;52.33;32.15;;;;;;;25.39;31.94;102197.13;5049230;28;20033;-85
2021/03/31 11:37:36;;;;;;;50.25;30.70;;;;;;;25.54;31.81;102190.72;5048644;28;20030;-86
2021/03/31 11:40:03;;;;;;;49.75;30.38;;;;;;;25.63;32.04;102192.00;5049816;28;20084;-85
2021/03/31 11:42:29;;;;;;;51.55;31.00;;;;;;;25.78;31.52;102191.03;5032299;28;20034;-89
2021/03/31 11:44:55;;;;;;;56.90;31.75;;;;;;;25.94;30.79;102192.78;5018250;28;20026;-91
2021/03/31 11:47:21;;;;;;;45.35;29.48;;;;;;;26.01;31.13;102188.69;5019620;28;20022;-92
2021/03/31 11:49:47;;;;;;;50.40;31.33;;;;;;;26.12;30.86;102186.19;5029754;28;20441;-90
2021/03/31 11:52:14;;;;;;;52.25;31.52;;;;;;;26.25;30.31;102188.09;5036856;28;20026;-89
2021/03/31 11:54:40;;;;;;;49.70;30.30;;;;;;;26.35;29.78;102182.94;5029359;28;20484;-89
2021/03/31 11:57:07;;;;;;;49.95;30.77;;;;;;;26.42;29.83;102181.56;5017906;28;20050;-87
2021/03/31 11:59:33;;;;;;;51.25;31.60;;;;;;;26.39;29.22;102171.75;5014344;28;20029;-88
2021/03/31 12:02:02;;;;;;;51.80;30.33;;;;;;;26.57;29.00;102169.66;5015842;28;20030;-90
2021/03/31 12:04:28;;;;;;;50.80;31.63;;;;;;;26.52;29.63;102170.94;5016598;28;20117;-88
2021/03/31 12:06:55;;;;;;;52.92;30.08;;;;;;;26.64;29.61;102170.09;5016097;28;20599;-88
2021/03/31 12:09:23;;;;;;;45.75;28.88;;;;;;;26.77;29.10;102162.91;5015907;28;20022;-87
2021/03/31 12:11:59;;;;;;;49.17;30.45;;;;;;;26.91;28.39;102167.38;5019132;28;20022;-91
2021/03/31 12:14:30;;;;;;;49.47;30.73;;;;;;;27.01;27.85;102164.91;5035484;28;20383;-90
2021/03/31 12:16:56;;;;;;;53.43;31.43;;;;;;;27.03;27.63;102168.41;5030813;28;20032;-91
2021/03/31 12:19:23;;;;;;;50.40;30.15;;;;;;;27.11;27.78;102163.28;5035793;28;20276;-87